sensor_id;sensor_type;location;lat;lon;timestamp;P1;durP1;ratioP1;P2;durP2;ratioP2
71622;SDS011;59473;53.214;5.728;2023-06-01T00:00:45;15.88;;;5.40;;
71622;SDS011;59473;53.214;5.728;2023-06-01T00:03:10;13.13;;;5.00;;
71622;SDS011;59473;53.214;5.728;2023-06-01T00:05:35;13.07;;;5.90;;
71622;SDS011;59473;53.214;5.728;2023-06-01T00:08:01;13.07;;;6.50;;
71622;SDS011;59473;53.214;5.728;2023-06-01T00:10:29;13.63;;;5.90;;
71622;SDS011;59473;53.214;5.728;2023-06-01T00:12:54;15.73;;;6.33;;
71622;SDS011;59473;53.214;5.728;2023-06-01T00:15:19;13.63;;;6.73;;
71622;SDS011;59473;53.214;5.728;2023-06-01T00:17:45;13.97;;;5.53;;
71622;SDS011;59473;53.214;5.728;2023-06-01T00:20:11;13.65;;;5.25;;
71622;SDS011;59473;53.214;5.728;2023-06-01T00:22:36;16.13;;;5.40;;
71622;SDS011;59473;53.214;5.728;2023-06-01T00:25:05;15.27;;;5.53;;
71622;SDS011;59473;53.214;5.728;2023-06-01T00:27:31;12.53;;;4.97;;
71622;SDS011;59473;53.214;5.728;2023-06-01T00:29:56;13.83;;;5.50;;
71622;SDS011;59473;53.214;5.728;2023-06-01T00:32:21;14.60;;;5.33;;
71622;SDS011;59473;53.214;5.728;2023-06-01T00:34:46;16.65;;;5.60;;
71622;SDS011;59473;53.214;5.728;2023-06-01T00:37:12;13.07;;;5.47;;
71622;SDS011;59473;53.214;5.728;2023-06-01T00:39:37;17.17;;;6.30;;
71622;SDS011;59473;53.214;5.728;2023-06-01T00:42:02;15.10;;;6.60;;
71622;SDS011;59473;53.214;5.728;2023-06-01T00:44:27;14.20;;;5.75;;
71622;SDS011;59473;53.214;5.728;2023-06-01T00:46:53;15.30;;;5.77;;
71622;SDS011;59473;53.214;5.728;2023-06-01T00:49:18;14.97;;;6.10;;
71622;SDS011;59473;53.214;5.728;2023-06-01T00:51:43;16.13;;;6.50;;
71622;SDS011;59473;53.214;5.728;2023-06-01T00:54:09;11.50;;;5.53;;
71622;SDS011;59473;53.214;5.728;2023-06-01T00:56:34;19.37;;;7.13;;
71622;SDS011;59473;53.214;5.728;2023-06-01T00:59:01;14.40;;;6.53;;
71622;SDS011;59473;53.214;5.728;2023-06-01T01:01:26;11.83;;;5.67;;
71622;SDS011;59473;53.214;5.728;2023-06-01T01:03:52;14.63;;;6.37;;
71622;SDS011;59473;53.214;5.728;2023-06-01T01:09:23;15.10;;;5.88;;
71622;SDS011;59473;53.214;5.728;2023-06-01T01:11:57;11.38;;;4.85;;
71622;SDS011;59473;53.214;5.728;2023-06-01T01:14:30;13.27;;;6.53;;
71622;SDS011;59473;53.214;5.728;2023-06-01T01:17:01;12.88;;;6.13;;
71622;SDS011;59473;53.214;5.728;2023-06-01T01:24:56;17.83;;;6.43;;
71622;SDS011;59473;53.214;5.728;2023-06-01T01:30:09;17.57;;;7.03;;
71622;SDS011;59473;53.214;5.728;2023-06-01T01:32:35;13.52;;;6.97;;
71622;SDS011;59473;53.214;5.728;2023-06-01T01:35:01;17.88;;;6.50;;
71622;SDS011;59473;53.214;5.728;2023-06-01T01:37:29;12.48;;;6.47;;
71622;SDS011;59473;53.214;5.728;2023-06-01T01:39:54;15.13;;;6.83;;
71622;SDS011;59473;53.214;5.728;2023-06-01T01:42:19;18.37;;;7.43;;
71622;SDS011;59473;53.214;5.728;2023-06-01T01:44:44;16.23;;;6.77;;
71622;SDS011;59473;53.214;5.728;2023-06-01T01:49:41;13.97;;;5.80;;
71622;SDS011;59473;53.214;5.728;2023-06-01T01:52:10;15.38;;;5.18;;
71622;SDS011;59473;53.214;5.728;2023-06-01T01:54:37;14.25;;;6.43;;
71622;SDS011;59473;53.214;5.728;2023-06-01T01:57:03;14.98;;;6.15;;
71622;SDS011;59473;53.214;5.728;2023-06-01T01:59:30;13.60;;;5.72;;
71622;SDS011;59473;53.214;5.728;2023-06-01T02:01:55;15.60;;;5.70;;
71622;SDS011;59473;53.214;5.728;2023-06-01T02:04:20;14.70;;;6.20;;
71622;SDS011;59473;53.214;5.728;2023-06-01T02:06:46;14.43;;;6.20;;
71622;SDS011;59473;53.214;5.728;2023-06-01T02:09:11;17.17;;;6.47;;
71622;SDS011;59473;53.214;5.728;2023-06-01T02:11:36;14.17;;;5.53;;
71622;SDS011;59473;53.214;5.728;2023-06-01T02:14:02;15.30;;;5.83;;
71622;SDS011;59473;53.214;5.728;2023-06-01T02:16:27;14.45;;;5.53;;
71622;SDS011;59473;53.214;5.728;2023-06-01T02:18:53;13.47;;;5.90;;
71622;SDS011;59473;53.214;5.728;2023-06-01T02:21:18;15.63;;;5.67;;
71622;SDS011;59473;53.214;5.728;2023-06-01T02:23:43;9.97;;;4.50;;
71622;SDS011;59473;53.214;5.728;2023-06-01T02:26:09;16.83;;;5.73;;
71622;SDS011;59473;53.214;5.728;2023-06-01T02:28:36;10.57;;;4.93;;
71622;SDS011;59473;53.214;5.728;2023-06-01T02:31:01;11.20;;;4.90;;
71622;SDS011;59473;53.214;5.728;2023-06-01T02:33:26;14.03;;;5.20;;
71622;SDS011;59473;53.214;5.728;2023-06-01T02:35:52;13.32;;;5.78;;
71622;SDS011;59473;53.214;5.728;2023-06-01T02:38:17;12.57;;;5.67;;
71622;SDS011;59473;53.214;5.728;2023-06-01T02:40:43;11.70;;;4.77;;
71622;SDS011;59473;53.214;5.728;2023-06-01T02:43:08;13.07;;;5.20;;
71622;SDS011;59473;53.214;5.728;2023-06-01T02:45:33;10.53;;;4.90;;
71622;SDS011;59473;53.214;5.728;2023-06-01T02:47:58;12.50;;;5.20;;
71622;SDS011;59473;53.214;5.728;2023-06-01T02:50:24;13.10;;;5.37;;
71622;SDS011;59473;53.214;5.728;2023-06-01T02:52:49;9.73;;;4.87;;
71622;SDS011;59473;53.214;5.728;2023-06-01T02:55:14;11.30;;;4.63;;
71622;SDS011;59473;53.214;5.728;2023-06-01T02:57:39;13.60;;;5.67;;
71622;SDS011;59473;53.214;5.728;2023-06-01T03:00:05;11.13;;;4.83;;
71622;SDS011;59473;53.214;5.728;2023-06-01T03:02:40;11.27;;;4.85;;
71622;SDS011;59473;53.214;5.728;2023-06-01T03:05:06;13.50;;;5.30;;
71622;SDS011;59473;53.214;5.728;2023-06-01T03:07:31;20.20;;;5.70;;
71622;SDS011;59473;53.214;5.728;2023-06-01T03:09:56;10.77;;;4.20;;
71622;SDS011;59473;53.214;5.728;2023-06-01T03:12:21;13.60;;;4.90;;
71622;SDS011;59473;53.214;5.728;2023-06-01T03:14:46;13.20;;;4.40;;
71622;SDS011;59473;53.214;5.728;2023-06-01T03:17:12;6.83;;;3.90;;
71622;SDS011;59473;53.214;5.728;2023-06-01T03:19:37;9.83;;;4.40;;
71622;SDS011;59473;53.214;5.728;2023-06-01T03:22:02;12.38;;;4.57;;
71622;SDS011;59473;53.214;5.728;2023-06-01T03:24:27;13.30;;;4.65;;
71622;SDS011;59473;53.214;5.728;2023-06-01T03:26:54;12.55;;;4.80;;
71622;SDS011;59473;53.214;5.728;2023-06-01T03:29:19;11.65;;;4.40;;
71622;SDS011;59473;53.214;5.728;2023-06-01T03:31:45;11.77;;;4.80;;
71622;SDS011;59473;53.214;5.728;2023-06-01T03:34:10;11.95;;;4.68;;
71622;SDS011;59473;53.214;5.728;2023-06-01T03:36:36;10.30;;;4.07;;
71622;SDS011;59473;53.214;5.728;2023-06-01T03:39:01;11.80;;;4.37;;
71622;SDS011;59473;53.214;5.728;2023-06-01T03:41:32;11.25;;;4.75;;
71622;SDS011;59473;53.214;5.728;2023-06-01T03:43:58;13.33;;;4.17;;
71622;SDS011;59473;53.214;5.728;2023-06-01T03:46:23;9.87;;;4.60;;
71622;SDS011;59473;53.214;5.728;2023-06-01T03:48:48;10.60;;;3.87;;
71622;SDS011;59473;53.214;5.728;2023-06-01T03:51:15;9.53;;;4.77;;
71622;SDS011;59473;53.214;5.728;2023-06-01T03:53:41;13.80;;;4.70;;
71622;SDS011;59473;53.214;5.728;2023-06-01T03:56:06;10.10;;;4.20;;
71622;SDS011;59473;53.214;5.728;2023-06-01T03:58:31;13.55;;;4.68;;
71622;SDS011;59473;53.214;5.728;2023-06-01T04:00:57;10.77;;;4.10;;
71622;SDS011;59473;53.214;5.728;2023-06-01T04:03:22;12.05;;;5.05;;
71622;SDS011;59473;53.214;5.728;2023-06-01T04:05:48;11.82;;;3.50;;
71622;SDS011;59473;53.214;5.728;2023-06-01T04:08:15;11.23;;;4.55;;
71622;SDS011;59473;53.214;5.728;2023-06-01T04:10:41;9.30;;;4.13;;
71622;SDS011;59473;53.214;5.728;2023-06-01T04:13:06;10.67;;;4.00;;
71622;SDS011;59473;53.214;5.728;2023-06-01T04:15:31;14.13;;;5.10;;
71622;SDS011;59473;53.214;5.728;2023-06-01T04:17:57;9.10;;;3.93;;
71622;SDS011;59473;53.214;5.728;2023-06-01T04:20:23;8.43;;;4.07;;
71622;SDS011;59473;53.214;5.728;2023-06-01T04:22:48;11.98;;;4.60;;
71622;SDS011;59473;53.214;5.728;2023-06-01T04:25:14;10.90;;;4.30;;
71622;SDS011;59473;53.214;5.728;2023-06-01T04:27:44;10.33;;;4.57;;
71622;SDS011;59473;53.214;5.728;2023-06-01T04:30:10;9.25;;;4.47;;
71622;SDS011;59473;53.214;5.728;2023-06-01T04:32:35;9.32;;;4.28;;
71622;SDS011;59473;53.214;5.728;2023-06-01T04:35:03;11.25;;;4.50;;
71622;SDS011;59473;53.214;5.728;2023-06-01T04:37:31;8.93;;;4.27;;
71622;SDS011;59473;53.214;5.728;2023-06-01T04:39:59;10.95;;;4.18;;
71622;SDS011;59473;53.214;5.728;2023-06-01T04:42:24;10.65;;;3.60;;
71622;SDS011;59473;53.214;5.728;2023-06-01T04:44:50;8.43;;;3.70;;
71622;SDS011;59473;53.214;5.728;2023-06-01T04:47:16;8.98;;;3.42;;
71622;SDS011;59473;53.214;5.728;2023-06-01T04:49:42;14.43;;;4.43;;
71622;SDS011;59473;53.214;5.728;2023-06-01T04:52:08;10.90;;;3.80;;
71622;SDS011;59473;53.214;5.728;2023-06-01T04:54:35;10.45;;;4.57;;
71622;SDS011;59473;53.214;5.728;2023-06-01T04:57:00;11.00;;;4.50;;
71622;SDS011;59473;53.214;5.728;2023-06-01T04:59:25;9.53;;;3.43;;
71622;SDS011;59473;53.214;5.728;2023-06-01T05:01:50;8.90;;;4.57;;
71622;SDS011;59473;53.214;5.728;2023-06-01T05:04:16;10.85;;;4.30;;
71622;SDS011;59473;53.214;5.728;2023-06-01T05:06:41;13.80;;;4.43;;
71622;SDS011;59473;53.214;5.728;2023-06-01T05:09:07;12.10;;;4.27;;
71622;SDS011;59473;53.214;5.728;2023-06-01T05:11:33;12.60;;;5.10;;
71622;SDS011;59473;53.214;5.728;2023-06-01T05:13:58;13.80;;;4.73;;
71622;SDS011;59473;53.214;5.728;2023-06-01T05:16:27;11.70;;;3.58;;
71622;SDS011;59473;53.214;5.728;2023-06-01T05:18:52;10.18;;;3.83;;
71622;SDS011;59473;53.214;5.728;2023-06-01T05:21:17;12.10;;;4.33;;
71622;SDS011;59473;53.214;5.728;2023-06-01T05:23:43;12.20;;;5.17;;
71622;SDS011;59473;53.214;5.728;2023-06-01T05:26:08;11.80;;;5.33;;
71622;SDS011;59473;53.214;5.728;2023-06-01T05:28:33;12.53;;;4.40;;
71622;SDS011;59473;53.214;5.728;2023-06-01T05:31:00;13.48;;;4.82;;
71622;SDS011;59473;53.214;5.728;2023-06-01T05:33:26;14.60;;;4.83;;
71622;SDS011;59473;53.214;5.728;2023-06-01T05:35:51;12.38;;;4.88;;
71622;SDS011;59473;53.214;5.728;2023-06-01T05:38:17;14.38;;;5.07;;
71622;SDS011;59473;53.214;5.728;2023-06-01T05:40:43;11.83;;;5.63;;
71622;SDS011;59473;53.214;5.728;2023-06-01T05:43:08;14.27;;;4.87;;
71622;SDS011;59473;53.214;5.728;2023-06-01T05:45:33;14.87;;;6.30;;
71622;SDS011;59473;53.214;5.728;2023-06-01T05:47:59;11.23;;;5.35;;
71622;SDS011;59473;53.214;5.728;2023-06-01T05:50:24;12.70;;;5.40;;
71622;SDS011;59473;53.214;5.728;2023-06-01T05:52:50;13.37;;;4.90;;
71622;SDS011;59473;53.214;5.728;2023-06-01T05:55:15;18.08;;;5.90;;
71622;SDS011;59473;53.214;5.728;2023-06-01T05:57:40;15.03;;;5.40;;
71622;SDS011;59473;53.214;5.728;2023-06-01T06:00:06;8.67;;;4.50;;
71622;SDS011;59473;53.214;5.728;2023-06-01T06:02:38;13.70;;;3.88;;
71622;SDS011;59473;53.214;5.728;2023-06-01T06:05:04;13.10;;;4.47;;
71622;SDS011;59473;53.214;5.728;2023-06-01T06:07:30;14.47;;;4.57;;
71622;SDS011;59473;53.214;5.728;2023-06-01T06:09:55;10.77;;;4.30;;
71622;SDS011;59473;53.214;5.728;2023-06-01T06:12:20;11.83;;;4.30;;
71622;SDS011;59473;53.214;5.728;2023-06-01T06:14:46;11.60;;;4.00;;
71622;SDS011;59473;53.214;5.728;2023-06-01T06:17:11;12.87;;;4.87;;
71622;SDS011;59473;53.214;5.728;2023-06-01T06:19:36;14.97;;;3.93;;
71622;SDS011;59473;53.214;5.728;2023-06-01T06:22:01;11.53;;;4.80;;
71622;SDS011;59473;53.214;5.728;2023-06-01T06:24:27;12.37;;;4.63;;
71622;SDS011;59473;53.214;5.728;2023-06-01T06:26:52;10.53;;;3.93;;
71622;SDS011;59473;53.214;5.728;2023-06-01T06:29:17;9.97;;;3.83;;
71622;SDS011;59473;53.214;5.728;2023-06-01T06:31:42;12.67;;;4.23;;
71622;SDS011;59473;53.214;5.728;2023-06-01T06:34:08;9.90;;;4.13;;
71622;SDS011;59473;53.214;5.728;2023-06-01T06:36:34;10.35;;;3.90;;
71622;SDS011;59473;53.214;5.728;2023-06-01T06:38:59;9.77;;;3.57;;
71622;SDS011;59473;53.214;5.728;2023-06-01T06:41:24;8.77;;;3.77;;
71622;SDS011;59473;53.214;5.728;2023-06-01T06:43:50;10.47;;;4.03;;
71622;SDS011;59473;53.214;5.728;2023-06-01T06:46:15;7.57;;;3.40;;
71622;SDS011;59473;53.214;5.728;2023-06-01T06:48:40;8.82;;;3.63;;
71622;SDS011;59473;53.214;5.728;2023-06-01T06:51:05;9.13;;;3.33;;
71622;SDS011;59473;53.214;5.728;2023-06-01T06:53:31;10.20;;;3.63;;
71622;SDS011;59473;53.214;5.728;2023-06-01T06:55:56;8.07;;;3.67;;
71622;SDS011;59473;53.214;5.728;2023-06-01T06:58:21;9.60;;;3.60;;
71622;SDS011;59473;53.214;5.728;2023-06-01T07:00:46;8.00;;;3.30;;
71622;SDS011;59473;53.214;5.728;2023-06-01T07:03:12;9.40;;;3.40;;
71622;SDS011;59473;53.214;5.728;2023-06-01T07:05:38;11.35;;;3.65;;
71622;SDS011;59473;53.214;5.728;2023-06-01T07:08:03;11.87;;;3.70;;
71622;SDS011;59473;53.214;5.728;2023-06-01T07:10:29;7.87;;;3.23;;
71622;SDS011;59473;53.214;5.728;2023-06-01T07:12:54;7.37;;;3.13;;
71622;SDS011;59473;53.214;5.728;2023-06-01T07:15:20;9.00;;;3.33;;
71622;SDS011;59473;53.214;5.728;2023-06-01T07:17:46;9.73;;;3.47;;
71622;SDS011;59473;53.214;5.728;2023-06-01T07:20:11;12.40;;;4.07;;
71622;SDS011;59473;53.214;5.728;2023-06-01T07:22:40;8.13;;;3.63;;
71622;SDS011;59473;53.214;5.728;2023-06-01T07:25:05;8.60;;;4.30;;
71622;SDS011;59473;53.214;5.728;2023-06-01T07:27:31;7.97;;;3.17;;
71622;SDS011;59473;53.214;5.728;2023-06-01T07:29:57;12.48;;;4.05;;
71622;SDS011;59473;53.214;5.728;2023-06-01T07:32:22;13.77;;;4.63;;
71622;SDS011;59473;53.214;5.728;2023-06-01T07:34:48;6.93;;;3.08;;
71622;SDS011;59473;53.214;5.728;2023-06-01T07:37:13;7.23;;;2.90;;
71622;SDS011;59473;53.214;5.728;2023-06-01T07:39:38;9.80;;;2.90;;
71622;SDS011;59473;53.214;5.728;2023-06-01T07:42:03;9.90;;;3.40;;
71622;SDS011;59473;53.214;5.728;2023-06-01T07:44:29;9.50;;;3.67;;
71622;SDS011;59473;53.214;5.728;2023-06-01T07:46:54;12.37;;;3.90;;
71622;SDS011;59473;53.214;5.728;2023-06-01T07:49:19;8.03;;;3.40;;
71622;SDS011;59473;53.214;5.728;2023-06-01T07:51:45;9.43;;;3.60;;
71622;SDS011;59473;53.214;5.728;2023-06-01T07:54:10;11.43;;;4.07;;
71622;SDS011;59473;53.214;5.728;2023-06-01T07:56:35;10.37;;;3.93;;
71622;SDS011;59473;53.214;5.728;2023-06-01T07:59:01;12.20;;;4.43;;
71622;SDS011;59473;53.214;5.728;2023-06-01T08:01:26;14.50;;;5.10;;
71622;SDS011;59473;53.214;5.728;2023-06-01T08:03:51;23.67;;;5.23;;
71622;SDS011;59473;53.214;5.728;2023-06-01T08:06:17;13.03;;;4.47;;
71622;SDS011;59473;53.214;5.728;2023-06-01T08:08:43;10.87;;;4.67;;
71622;SDS011;59473;53.214;5.728;2023-06-01T08:11:08;14.73;;;4.82;;
71622;SDS011;59473;53.214;5.728;2023-06-01T08:13:34;15.20;;;4.37;;
71622;SDS011;59473;53.214;5.728;2023-06-01T08:16:01;12.35;;;4.22;;
71622;SDS011;59473;53.214;5.728;2023-06-01T08:18:26;18.10;;;5.00;;
71622;SDS011;59473;53.214;5.728;2023-06-01T08:20:52;12.63;;;3.80;;
71622;SDS011;59473;53.214;5.728;2023-06-01T08:23:17;13.27;;;4.63;;
71622;SDS011;59473;53.214;5.728;2023-06-01T08:25:44;13.40;;;3.17;;
71622;SDS011;59473;53.214;5.728;2023-06-01T08:28:10;12.85;;;4.20;;
71622;SDS011;59473;53.214;5.728;2023-06-01T08:30:35;15.87;;;4.43;;
71622;SDS011;59473;53.214;5.728;2023-06-01T08:33:00;16.33;;;4.20;;
71622;SDS011;59473;53.214;5.728;2023-06-01T08:35:27;14.75;;;4.00;;
71622;SDS011;59473;53.214;5.728;2023-06-01T08:37:53;15.90;;;4.83;;
71622;SDS011;59473;53.214;5.728;2023-06-01T08:40:18;14.70;;;4.50;;
71622;SDS011;59473;53.214;5.728;2023-06-01T08:45:27;15.98;;;3.78;;
71622;SDS011;59473;53.214;5.728;2023-06-01T08:47:53;11.50;;;4.40;;
71622;SDS011;59473;53.214;5.728;2023-06-01T08:50:20;10.15;;;3.47;;
71622;SDS011;59473;53.214;5.728;2023-06-01T08:52:46;14.83;;;4.50;;
71622;SDS011;59473;53.214;5.728;2023-06-01T08:55:11;14.45;;;4.05;;
71622;SDS011;59473;53.214;5.728;2023-06-01T08:57:40;12.40;;;3.83;;
71622;SDS011;59473;53.214;5.728;2023-06-01T09:00:05;11.98;;;3.97;;
71622;SDS011;59473;53.214;5.728;2023-06-01T09:02:31;14.50;;;4.57;;
71622;SDS011;59473;53.214;5.728;2023-06-01T09:04:56;9.73;;;3.90;;
71622;SDS011;59473;53.214;5.728;2023-06-01T09:07:22;11.10;;;4.10;;
71622;SDS011;59473;53.214;5.728;2023-06-01T09:09:47;10.35;;;4.10;;
71622;SDS011;59473;53.214;5.728;2023-06-01T09:14:43;10.77;;;3.50;;
71622;SDS011;59473;53.214;5.728;2023-06-01T09:17:12;16.13;;;3.90;;
71622;SDS011;59473;53.214;5.728;2023-06-01T09:19:44;14.85;;;4.03;;
71622;SDS011;59473;53.214;5.728;2023-06-01T09:22:10;14.27;;;3.35;;
71622;SDS011;59473;53.214;5.728;2023-06-01T09:24:36;12.10;;;4.03;;
71622;SDS011;59473;53.214;5.728;2023-06-01T09:27:01;10.63;;;3.70;;
71622;SDS011;59473;53.214;5.728;2023-06-01T09:29:27;16.10;;;4.40;;
71622;SDS011;59473;53.214;5.728;2023-06-01T09:31:52;9.83;;;3.77;;
71622;SDS011;59473;53.214;5.728;2023-06-01T09:34:19;11.40;;;3.57;;
71622;SDS011;59473;53.214;5.728;2023-06-01T09:36:48;11.07;;;4.13;;
71622;SDS011;59473;53.214;5.728;2023-06-01T09:39:15;12.48;;;3.83;;
71622;SDS011;59473;53.214;5.728;2023-06-01T09:41:47;10.82;;;3.75;;
71622;SDS011;59473;53.214;5.728;2023-06-01T09:44:13;10.50;;;3.80;;
71622;SDS011;59473;53.214;5.728;2023-06-01T09:46:48;13.70;;;3.50;;
71622;SDS011;59473;53.214;5.728;2023-06-01T09:49:23;12.55;;;3.60;;
71622;SDS011;59473;53.214;5.728;2023-06-01T09:51:50;12.88;;;3.60;;
71622;SDS011;59473;53.214;5.728;2023-06-01T09:54:25;8.73;;;2.77;;
71622;SDS011;59473;53.214;5.728;2023-06-01T09:56:51;13.63;;;3.80;;
71622;SDS011;59473;53.214;5.728;2023-06-01T09:59:16;11.00;;;3.30;;
71622;SDS011;59473;53.214;5.728;2023-06-01T10:01:42;11.67;;;2.77;;
71622;SDS011;59473;53.214;5.728;2023-06-01T10:04:09;8.10;;;2.87;;
71622;SDS011;59473;53.214;5.728;2023-06-01T10:06:37;6.75;;;2.63;;
71622;SDS011;59473;53.214;5.728;2023-06-01T10:09:03;8.82;;;3.00;;
71622;SDS011;59473;53.214;5.728;2023-06-01T10:11:30;11.15;;;3.78;;
71622;SDS011;59473;53.214;5.728;2023-06-01T10:13:56;9.40;;;2.67;;
71622;SDS011;59473;53.214;5.728;2023-06-01T10:16:22;9.45;;;3.28;;
71622;SDS011;59473;53.214;5.728;2023-06-01T10:18:47;8.87;;;3.30;;
71622;SDS011;59473;53.214;5.728;2023-06-01T10:21:13;8.40;;;3.08;;
71622;SDS011;59473;53.214;5.728;2023-06-01T10:23:38;10.60;;;3.27;;
71622;SDS011;59473;53.214;5.728;2023-06-01T10:26:07;8.30;;;3.73;;
71622;SDS011;59473;53.214;5.728;2023-06-01T10:28:35;7.07;;;2.92;;
71622;SDS011;59473;53.214;5.728;2023-06-01T10:33:51;7.47;;;2.67;;
71622;SDS011;59473;53.214;5.728;2023-06-01T10:36:17;4.03;;;2.30;;
71622;SDS011;59473;53.214;5.728;2023-06-01T10:38:43;11.60;;;2.83;;
71622;SDS011;59473;53.214;5.728;2023-06-01T10:41:27;11.17;;;3.67;;
71622;SDS011;59473;53.214;5.728;2023-06-01T10:43:53;12.30;;;3.70;;
71622;SDS011;59473;53.214;5.728;2023-06-01T10:46:37;11.55;;;3.40;;
71622;SDS011;59473;53.214;5.728;2023-06-01T10:49:03;11.47;;;3.30;;
71622;SDS011;59473;53.214;5.728;2023-06-01T10:51:28;14.70;;;3.05;;
71622;SDS011;59473;53.214;5.728;2023-06-01T10:53:54;12.73;;;2.90;;
71622;SDS011;59473;53.214;5.728;2023-06-01T10:56:20;13.13;;;3.53;;
71622;SDS011;59473;53.214;5.728;2023-06-01T10:58:47;8.88;;;3.17;;
71622;SDS011;59473;53.214;5.728;2023-06-01T11:01:22;10.68;;;3.40;;
71622;SDS011;59473;53.214;5.728;2023-06-01T11:03:47;16.20;;;3.00;;
71622;SDS011;59473;53.214;5.728;2023-06-01T11:09:10;9.67;;;2.27;;
71622;SDS011;59473;53.214;5.728;2023-06-01T11:14:13;9.73;;;2.80;;
71622;SDS011;59473;53.214;5.728;2023-06-01T11:16:40;8.20;;;3.00;;
71622;SDS011;59473;53.214;5.728;2023-06-01T11:19:05;7.07;;;2.70;;
71622;SDS011;59473;53.214;5.728;2023-06-01T11:21:36;6.32;;;2.25;;
71622;SDS011;59473;53.214;5.728;2023-06-01T11:24:08;6.47;;;2.20;;
71622;SDS011;59473;53.214;5.728;2023-06-01T11:26:41;10.90;;;3.00;;
71622;SDS011;59473;53.214;5.728;2023-06-01T11:29:10;8.37;;;2.90;;
71622;SDS011;59473;53.214;5.728;2023-06-01T11:31:47;9.23;;;2.58;;
71622;SDS011;59473;53.214;5.728;2023-06-01T11:34:13;7.70;;;2.67;;
71622;SDS011;59473;53.214;5.728;2023-06-01T11:36:40;9.32;;;2.90;;
71622;SDS011;59473;53.214;5.728;2023-06-01T11:39:15;7.45;;;2.72;;
71622;SDS011;59473;53.214;5.728;2023-06-01T11:41:41;6.47;;;2.47;;
71622;SDS011;59473;53.214;5.728;2023-06-01T11:44:07;4.97;;;2.17;;
71622;SDS011;59473;53.214;5.728;2023-06-01T11:46:32;9.10;;;2.50;;
71622;SDS011;59473;53.214;5.728;2023-06-01T11:49:01;7.85;;;2.78;;
71622;SDS011;59473;53.214;5.728;2023-06-01T11:51:29;10.68;;;3.50;;
71622;SDS011;59473;53.214;5.728;2023-06-01T11:53:56;6.17;;;2.73;;
71622;SDS011;59473;53.214;5.728;2023-06-01T11:56:27;10.10;;;2.90;;
71622;SDS011;59473;53.214;5.728;2023-06-01T11:58:56;9.00;;;3.25;;
71622;SDS011;59473;53.214;5.728;2023-06-01T12:01:21;12.02;;;3.03;;
71622;SDS011;59473;53.214;5.728;2023-06-01T12:03:47;9.57;;;3.33;;
71622;SDS011;59473;53.214;5.728;2023-06-01T12:06:19;7.03;;;2.73;;
71622;SDS011;59473;53.214;5.728;2023-06-01T12:08:45;8.10;;;3.13;;
71622;SDS011;59473;53.214;5.728;2023-06-01T12:11:10;5.82;;;2.22;;
71622;SDS011;59473;53.214;5.728;2023-06-01T12:13:37;8.27;;;2.20;;
71622;SDS011;59473;53.214;5.728;2023-06-01T12:16:02;7.00;;;2.63;;
71622;SDS011;59473;53.214;5.728;2023-06-01T12:18:30;10.03;;;2.40;;
71622;SDS011;59473;53.214;5.728;2023-06-01T12:20:56;8.60;;;3.10;;
71622;SDS011;59473;53.214;5.728;2023-06-01T12:23:21;12.45;;;3.25;;
71622;SDS011;59473;53.214;5.728;2023-06-01T12:25:50;10.18;;;3.30;;
71622;SDS011;59473;53.214;5.728;2023-06-01T12:28:15;12.67;;;2.97;;
71622;SDS011;59473;53.214;5.728;2023-06-01T12:30:42;13.65;;;3.53;;
71622;SDS011;59473;53.214;5.728;2023-06-01T12:33:07;13.50;;;4.07;;
71622;SDS011;59473;53.214;5.728;2023-06-01T12:35:46;12.57;;;3.13;;
71622;SDS011;59473;53.214;5.728;2023-06-01T12:38:12;15.63;;;3.10;;
71622;SDS011;59473;53.214;5.728;2023-06-01T12:40:37;10.25;;;3.38;;
71622;SDS011;59473;53.214;5.728;2023-06-01T12:43:03;11.63;;;3.00;;
71622;SDS011;59473;53.214;5.728;2023-06-01T12:45:36;9.90;;;3.30;;
71622;SDS011;59473;53.214;5.728;2023-06-01T12:48:02;5.95;;;2.47;;
71622;SDS011;59473;53.214;5.728;2023-06-01T12:50:28;7.20;;;2.53;;
71622;SDS011;59473;53.214;5.728;2023-06-01T12:52:53;5.57;;;2.33;;
71622;SDS011;59473;53.214;5.728;2023-06-01T12:55:19;6.87;;;2.67;;
71622;SDS011;59473;53.214;5.728;2023-06-01T12:57:51;6.80;;;2.58;;
71622;SDS011;59473;53.214;5.728;2023-06-01T13:00:16;7.32;;;2.90;;
71622;SDS011;59473;53.214;5.728;2023-06-01T13:02:42;9.93;;;2.83;;
71622;SDS011;59473;53.214;5.728;2023-06-01T13:05:07;10.90;;;2.90;;
71622;SDS011;59473;53.214;5.728;2023-06-01T13:07:34;7.32;;;2.45;;
71622;SDS011;59473;53.214;5.728;2023-06-01T13:09:59;9.90;;;2.30;;
71622;SDS011;59473;53.214;5.728;2023-06-01T13:12:25;12.13;;;3.22;;
71622;SDS011;59473;53.214;5.728;2023-06-01T13:14:50;8.60;;;3.27;;
71622;SDS011;59473;53.214;5.728;2023-06-01T13:17:16;13.70;;;3.33;;
71622;SDS011;59473;53.214;5.728;2023-06-01T13:19:41;10.53;;;3.30;;
71622;SDS011;59473;53.214;5.728;2023-06-01T13:22:06;17.30;;;3.60;;
71622;SDS011;59473;53.214;5.728;2023-06-01T13:24:32;10.93;;;3.30;;
71622;SDS011;59473;53.214;5.728;2023-06-01T13:26:57;8.03;;;2.60;;
71622;SDS011;59473;53.214;5.728;2023-06-01T13:29:23;8.77;;;2.83;;
71622;SDS011;59473;53.214;5.728;2023-06-01T13:31:48;12.93;;;3.77;;
71622;SDS011;59473;53.214;5.728;2023-06-01T13:34:13;11.60;;;3.80;;
71622;SDS011;59473;53.214;5.728;2023-06-01T13:36:38;6.83;;;2.57;;
71622;SDS011;59473;53.214;5.728;2023-06-01T13:39:03;7.10;;;2.60;;
71622;SDS011;59473;53.214;5.728;2023-06-01T13:41:29;6.45;;;2.55;;
71622;SDS011;59473;53.214;5.728;2023-06-01T13:43:54;6.97;;;2.37;;
71622;SDS011;59473;53.214;5.728;2023-06-01T13:46:20;7.27;;;2.30;;
71622;SDS011;59473;53.214;5.728;2023-06-01T13:48:45;8.53;;;2.47;;
71622;SDS011;59473;53.214;5.728;2023-06-01T13:51:10;6.80;;;2.77;;
71622;SDS011;59473;53.214;5.728;2023-06-01T13:53:35;8.67;;;2.87;;
71622;SDS011;59473;53.214;5.728;2023-06-01T13:56:01;13.23;;;2.97;;
71622;SDS011;59473;53.214;5.728;2023-06-01T13:58:27;9.70;;;3.53;;
71622;SDS011;59473;53.214;5.728;2023-06-01T14:00:52;7.57;;;2.73;;
71622;SDS011;59473;53.214;5.728;2023-06-01T14:03:17;10.67;;;3.00;;
71622;SDS011;59473;53.214;5.728;2023-06-01T14:05:43;9.30;;;2.63;;
71622;SDS011;59473;53.214;5.728;2023-06-01T14:08:08;8.37;;;3.40;;
71622;SDS011;59473;53.214;5.728;2023-06-01T14:10:33;7.87;;;2.70;;
71622;SDS011;59473;53.214;5.728;2023-06-01T14:12:59;7.55;;;2.50;;
71622;SDS011;59473;53.214;5.728;2023-06-01T14:15:25;7.07;;;3.10;;
71622;SDS011;59473;53.214;5.728;2023-06-01T14:17:50;8.47;;;2.70;;
71622;SDS011;59473;53.214;5.728;2023-06-01T14:20:16;5.57;;;2.40;;
71622;SDS011;59473;53.214;5.728;2023-06-01T14:22:41;7.60;;;2.63;;
71622;SDS011;59473;53.214;5.728;2023-06-01T14:25:06;6.65;;;2.80;;
71622;SDS011;59473;53.214;5.728;2023-06-01T14:27:32;7.37;;;2.50;;
71622;SDS011;59473;53.214;5.728;2023-06-01T14:29:57;9.17;;;2.97;;
71622;SDS011;59473;53.214;5.728;2023-06-01T14:32:22;10.87;;;3.27;;
71622;SDS011;59473;53.214;5.728;2023-06-01T14:34:48;6.93;;;2.83;;
71622;SDS011;59473;53.214;5.728;2023-06-01T14:37:13;9.90;;;3.17;;
71622;SDS011;59473;53.214;5.728;2023-06-01T14:39:39;10.15;;;3.15;;
71622;SDS011;59473;53.214;5.728;2023-06-01T14:42:05;8.43;;;2.43;;
71622;SDS011;59473;53.214;5.728;2023-06-01T14:44:30;9.27;;;2.43;;
71622;SDS011;59473;53.214;5.728;2023-06-01T14:46:55;9.93;;;2.80;;
71622;SDS011;59473;53.214;5.728;2023-06-01T14:49:21;8.47;;;2.90;;
71622;SDS011;59473;53.214;5.728;2023-06-01T14:51:46;5.73;;;2.27;;
71622;SDS011;59473;53.214;5.728;2023-06-01T14:54:11;5.97;;;2.10;;
71622;SDS011;59473;53.214;5.728;2023-06-01T14:56:36;6.43;;;2.30;;
71622;SDS011;59473;53.214;5.728;2023-06-01T14:59:02;7.72;;;2.22;;